createdAt,value
2023-01-25T00:02:06.520Z,103145.13
2023-01-25T00:04:34.453Z,103135.25
2023-01-25T00:07:03.542Z,103072.97
2023-01-25T00:09:32.864Z,103138.97
2023-01-25T00:12:00.761Z,103089.53
2023-01-25T00:14:28.690Z,103140.84
2023-01-25T00:16:56.928Z,103110.19
2023-01-25T00:19:25.074Z,103096.56
2023-01-25T00:21:53.062Z,103098.63
2023-01-25T00:24:23.046Z,103126.41
2023-01-25T00:26:52.741Z,103125.38
2023-01-25T00:29:20.873Z,103119.09
2023-01-25T00:31:55.509Z,103120.09
2023-01-25T00:34:46.145Z,103115.53
2023-01-25T00:37:16.025Z,103117.38
2023-01-25T00:39:43.951Z,103116.53
2023-01-25T00:42:13.434Z,103077.19
2023-01-25T00:44:41.407Z,103102.94
2023-01-25T00:47:10.533Z,103081.09
2023-01-25T00:49:39.205Z,103101.06
2023-01-25T00:52:07.178Z,103096.66
2023-01-25T00:54:35.437Z,103091.22
2023-01-25T00:57:03.402Z,103039.06
2023-01-25T00:59:32.741Z,103084.41
2023-01-25T01:02:01.320Z,103083.41
2023-01-25T01:04:29.273Z,103093.94
2023-01-25T01:06:57.646Z,103092.06
2023-01-25T01:09:25.556Z,103088.50
2023-01-25T01:11:53.471Z,103081.38
2023-01-25T01:14:21.705Z,103085.97
2023-01-25T01:16:51.352Z,103068.91
2023-01-25T01:19:19.329Z,103083.25
2023-01-25T01:21:47.278Z,102994.44
2023-01-25T01:24:15.246Z,103069.78
2023-01-25T01:26:43.458Z,103083.91
2023-01-25T01:29:11.407Z,103067.06
2023-01-25T01:31:39.442Z,103090.38
2023-01-25T01:34:08.748Z,103091.22
2023-01-25T01:36:36.944Z,103089.53
2023-01-25T01:39:04.904Z,103020.91
2023-01-25T01:41:32.801Z,103094.13
2023-01-25T01:44:00.739Z,103090.53
2023-01-25T01:46:30.009Z,103091.41
2023-01-25T01:48:59.499Z,103096.84
2023-01-25T01:51:43.445Z,103105.13
2023-01-25T01:54:14.162Z,103095.13
2023-01-25T01:56:44.977Z,103088.81
2023-01-25T01:59:13.065Z,103081.53
2023-01-25T02:01:41.133Z,103037.50
2023-01-25T02:04:09.082Z,103080.53
2023-01-25T02:06:42.790Z,103050.84
2023-01-25T02:09:10.759Z,103076.94
2023-01-25T02:11:38.704Z,103061.78
2023-01-25T02:14:06.583Z,103076.09
2023-01-25T02:16:34.789Z,103067.09
2023-01-25T02:19:03.766Z,103076.94
2023-01-25T02:21:34.913Z,103078.81
2023-01-25T02:24:06.925Z,103081.53
2023-01-25T02:26:36.549Z,103094.41
2023-01-25T02:29:05.404Z,103043.38
2023-01-25T02:31:33.331Z,103066.06
2023-01-25T02:34:01.277Z,103047.16
2023-01-25T02:36:30.173Z,103061.66
2023-01-25T02:39:00.532Z,103057.41
2023-01-25T02:41:33.759Z,103017.34
2023-01-25T02:44:04.213Z,103047.19
2023-01-25T02:46:33.368Z,103049.91
2023-01-25T02:49:01.661Z,103035.59
2023-01-25T02:51:30.432Z,103052.63
2023-01-25T02:53:58.374Z,103056.22
2023-01-25T02:56:26.284Z,103055.34
2023-01-25T02:58:54.235Z,102948.44
2023-01-25T03:01:23.514Z,103058.06
2023-01-25T03:03:51.454Z,103038.31
2023-01-25T03:06:19.612Z,103057.22
2023-01-25T03:08:47.885Z,103053.50
2023-01-25T03:11:15.813Z,102959.28
2023-01-25T03:13:43.695Z,103049.91
2023-01-25T03:16:12.726Z,103042.78
2023-01-25T03:18:42.110Z,103049.06
2023-01-25T03:21:11.193Z,103049.91
2023-01-25T03:23:39.179Z,103051.78
2023-01-25T03:26:11.246Z,103030.31
2023-01-25T03:28:39.331Z,102979.50
2023-01-25T03:31:07.587Z,103050.94
2023-01-25T03:33:35.480Z,103054.50
2023-01-25T03:36:05.736Z,103050.06
2023-01-25T03:38:33.815Z,103049.06
2023-01-25T03:41:01.782Z,103047.34
2023-01-25T03:43:29.700Z,103046.34
2023-01-25T03:45:58.937Z,103014.84
2023-01-25T03:48:27.060Z,103038.38
2023-01-25T03:50:55.735Z,103044.47
2023-01-25T03:53:30.854Z,103034.63
2023-01-25T03:55:59.618Z,103039.19
2023-01-25T03:58:27.641Z,102972.63
2023-01-25T04:00:56.178Z,103021.03
2023-01-25T04:03:25.119Z,103027.50
2023-01-25T04:05:53.288Z,103021.22
2023-01-25T04:08:21.248Z,103015.78
2023-01-25T04:10:53.646Z,102990.75
2023-01-25T04:13:21.737Z,103003.03
2023-01-25T04:15:49.642Z,102984.59
2023-01-25T04:18:17.724Z,102976.66
2023-01-25T04:20:45.674Z,102986.38
2023-01-25T04:23:13.585Z,102990.97
2023-01-25T04:25:42.026Z,102965.78
2023-01-25T04:28:11.295Z,102978.53
2023-01-25T04:30:39.168Z,102981.09
2023-01-25T04:33:08.044Z,102986.69
2023-01-25T04:35:36.285Z,102956.91
2023-01-25T04:38:04.311Z,102977.53
2023-01-25T04:40:32.279Z,102971.09
2023-01-25T04:43:00.212Z,102932.38
2023-01-25T04:45:29.778Z,102972.94
2023-01-25T04:47:57.765Z,102969.38
2023-01-25T04:50:25.721Z,102973.09
2023-01-25T04:52:53.619Z,102935.44
2023-01-25T04:55:21.509Z,102968.50
2023-01-25T04:57:50.496Z,102963.06
2023-01-25T05:00:19.189Z,102967.50
2023-01-25T05:02:48.478Z,102894.41
2023-01-25T05:05:16.919Z,102958.66
2023-01-25T05:07:44.801Z,102960.22
2023-01-25T05:10:12.797Z,102965.66
2023-01-25T05:12:40.702Z,102958.34
2023-01-25T05:15:12.706Z,102952.91
2023-01-25T05:17:40.705Z,102952.91
2023-01-25T05:20:11.848Z,102949.66
2023-01-25T05:22:39.761Z,102950.00
2023-01-25T05:25:28.759Z,102944.75
2023-01-25T05:27:55.631Z,102941.00
2023-01-25T05:30:23.526Z,102940.00
2023-01-25T05:32:51.421Z,102936.41
2023-01-25T05:35:20.963Z,102936.41
2023-01-25T05:37:48.867Z,102940.00
2023-01-25T05:40:16.942Z,102940.84
2023-01-25T05:42:44.887Z,102940.19
2023-01-25T05:45:13.122Z,102892.13
2023-01-25T05:47:41.159Z,102936.97
2023-01-25T05:50:10.023Z,102941.53
2023-01-25T05:52:39.292Z,102941.34
2023-01-25T05:55:08.170Z,102940.69
2023-01-25T05:57:36.309Z,102937.81
2023-01-25T06:00:04.915Z,102937.81
2023-01-25T06:02:33.289Z,102917.22
2023-01-25T06:05:01.572Z,102927.78
2023-01-25T06:07:29.473Z,102932.53
2023-01-25T06:09:58.843Z,102933.53
2023-01-25T06:12:28.276Z,102905.66
2023-01-25T06:14:57.516Z,102923.69
2023-01-25T06:17:25.478Z,102918.25
2023-01-25T06:19:53.384Z,102923.69
2023-01-25T06:22:21.820Z,102925.53
2023-01-25T06:24:50.196Z,102926.41
2023-01-25T06:27:19.507Z,102924.53
2023-01-25T06:29:47.740Z,102925.41
2023-01-25T06:32:15.692Z,102921.81
2023-01-25T06:34:43.837Z,102902.94
2023-01-25T06:37:12.498Z,102926.25
2023-01-25T06:39:40.390Z,102927.09
2023-01-25T06:42:10.348Z,102925.25
2023-01-25T06:44:39.613Z,102923.53
2023-01-25T06:47:09.544Z,102925.25
2023-01-25T06:49:37.406Z,102927.78
2023-01-25T06:52:05.323Z,102924.22
2023-01-25T06:54:34.460Z,102932.19
2023-01-25T06:57:02.537Z,102927.59
2023-01-25T06:59:30.412Z,102911.44
2023-01-25T07:01:59.796Z,102925.91
2023-01-25T07:04:27.752Z,102922.19
2023-01-25T07:06:55.934Z,102924.03
2023-01-25T07:09:24.269Z,102923.19
2023-01-25T07:11:52.201Z,102927.78
2023-01-25T07:14:20.287Z,102906.34
2023-01-25T07:16:48.470Z,102926.94
2023-01-25T07:19:18.040Z,102929.66
2023-01-25T07:21:47.096Z,102924.38
2023-01-25T07:24:16.034Z,102926.09
2023-01-25T07:26:44.014Z,102898.31
2023-01-25T07:29:13.809Z,102920.81
2023-01-25T07:31:42.270Z,102921.66
2023-01-25T07:34:10.523Z,102913.66
2023-01-25T07:36:40.140Z,102924.38
2023-01-25T07:39:09.320Z,102914.53
2023-01-25T07:41:37.193Z,102931.53
2023-01-25T07:44:05.220Z,102922.53
2023-01-25T07:46:33.464Z,102915.72
2023-01-25T07:49:01.402Z,102891.19
2023-01-25T07:51:31.047Z,102906.34
2023-01-25T07:54:01.687Z,102923.38
2023-01-25T07:56:31.906Z,102913.50
2023-01-25T07:59:00.171Z,102899.22
2023-01-25T08:01:28.755Z,102911.66
2023-01-25T08:03:57.340Z,102898.91
2023-01-25T08:06:27.606Z,102902.63
2023-01-25T08:08:56.060Z,102867.19
2023-01-25T08:11:26.574Z,102902.63
2023-01-25T08:13:54.535Z,102913.50
2023-01-25T08:16:24.144Z,102897.00
2023-01-25T08:18:52.647Z,102916.22
2023-01-25T08:21:20.537Z,102919.97
2023-01-25T08:23:48.538Z,102913.50
2023-01-25T08:26:18.125Z,102912.50
2023-01-25T08:28:47.428Z,102908.06
2023-01-25T08:31:16.205Z,102906.38
2023-01-25T08:33:46.109Z,102905.50
2023-01-25T08:36:14.551Z,102888.50
2023-01-25T08:38:42.552Z,102899.22
2023-01-25T08:41:11.348Z,102896.50
2023-01-25T08:43:39.371Z,102898.22
2023-01-25T08:46:09.028Z,102882.06
2023-01-25T08:48:36.960Z,102901.94
2023-01-25T08:51:05.143Z,102895.66
2023-01-25T08:53:33.877Z,102883.56
2023-01-25T08:56:05.996Z,102891.06
2023-01-25T08:58:34.212Z,102898.22
2023-01-25T09:01:03.402Z,102892.06
2023-01-25T09:03:32.770Z,102895.50
2023-01-25T09:06:01.048Z,102890.22
2023-01-25T09:08:28.919Z,102888.34
2023-01-25T09:10:56.814Z,102881.06
2023-01-25T09:13:24.711Z,102887.34
2023-01-25T09:15:52.872Z,102884.63
2023-01-25T09:18:20.796Z,102866.91
2023-01-25T09:20:50.150Z,102888.34
2023-01-25T09:23:19.651Z,102877.47
2023-01-25T09:25:47.843Z,102883.78
2023-01-25T09:28:15.827Z,102885.63
2023-01-25T09:30:47.612Z,102875.78
2023-01-25T09:33:19.535Z,102874.75
2023-01-25T09:35:51.982Z,102875.63
2023-01-25T09:38:19.909Z,102871.03
2023-01-25T09:40:52.929Z,102870.19
2023-01-25T09:43:23.097Z,102862.03
2023-01-25T09:45:51.299Z,102832.28
2023-01-25T09:48:22.331Z,102849.28
2023-01-25T09:51:09.869Z,102800.25
2023-01-25T09:53:38.188Z,102828.88
2023-01-25T09:56:10.453Z,102847.59
2023-01-25T09:58:39.379Z,102848.44
2023-01-25T10:01:36.697Z,102843.84
2023-01-25T10:04:08.649Z,102843.84
2023-01-25T10:06:46.129Z,102829.56
2023-01-25T10:09:24.713Z,102840.28
2023-01-25T10:11:52.614Z,102832.13
2023-01-25T10:14:21.545Z,102836.72
2023-01-25T10:16:56.639Z,102835.72
2023-01-25T10:19:26.581Z,102838.44
2023-01-25T10:21:57.123Z,102837.56
2023-01-25T10:24:46.278Z,102830.44
2023-01-25T10:27:20.165Z,102829.41
2023-01-25T10:29:50.436Z,102825.00
2023-01-25T10:32:20.422Z,102815.81
2023-01-25T10:34:56.339Z,102818.69
2023-01-25T10:37:28.753Z,102773.44
2023-01-25T10:40:00.269Z,102719.41
2023-01-25T10:42:28.553Z,102807.69
2023-01-25T10:44:56.714Z,102799.53
2023-01-25T10:47:25.537Z,102796.81
2023-01-25T10:49:53.992Z,102805.81
2023-01-25T10:52:23.223Z,102796.81
2023-01-25T10:55:15.136Z,102792.22
2023-01-25T10:57:46.673Z,102693.09
2023-01-25T11:00:24.714Z,102725.22
2023-01-25T11:02:53.931Z,102775.06
2023-01-25T11:05:30.580Z,102722.50
2023-01-25T11:07:58.587Z,102771.50
2023-01-25T11:10:32.582Z,102770.63
2023-01-25T11:13:21.868Z,102773.34
2023-01-25T11:15:50.829Z,102759.13
2023-01-25T11:18:20.495Z,102774.22
2023-01-25T11:20:48.439Z,102763.34
2023-01-25T11:23:23.190Z,102753.34
2023-01-25T11:25:53.006Z,102756.03
2023-01-25T11:28:22.979Z,102756.91
2023-01-25T11:30:51.155Z,102748.75
2023-01-25T11:33:21.077Z,102739.91
2023-01-25T11:36:16.586Z,102735.16
2023-01-25T11:38:47.514Z,102709.16
2023-01-25T11:41:19.416Z,102725.28
2023-01-25T11:44:04.072Z,102718.00
2023-01-25T11:46:40.449Z,102713.41
2023-01-25T11:49:29.146Z,102703.56
2023-01-25T11:51:59.925Z,102590.09
2023-01-25T11:54:39.303Z,102685.75
2023-01-25T11:57:14.889Z,102679.09
2023-01-25T11:59:54.886Z,102670.94
2023-01-25T12:02:48.515Z,102675.38
2023-01-25T12:05:22.775Z,102654.47
2023-01-25T12:07:52.701Z,102658.22
2023-01-25T12:10:26.810Z,102670.78
2023-01-25T12:12:59.194Z,102652.63
2023-01-25T12:15:49.202Z,102615.75
2023-01-25T12:19:04.909Z,102626.28
2023-01-25T12:21:41.387Z,102633.75
2023-01-25T12:24:24.361Z,102626.44
2023-01-25T12:26:55.709Z,102616.59
2023-01-25T12:29:28.425Z,102608.28
2023-01-25T12:31:58.314Z,102614.72
2023-01-25T12:34:28.654Z,102601.16
2023-01-25T12:36:57.065Z,102562.47
2023-01-25T12:39:26.195Z,102504.59
2023-01-25T12:41:57.426Z,102581.28
2023-01-25T12:44:28.288Z,102518.81
2023-01-25T12:46:58.920Z,102567.53
2023-01-25T12:49:30.608Z,102560.38
2023-01-25T12:52:00.283Z,102562.09
2023-01-25T12:54:31.412Z,102554.63
2023-01-25T12:57:05.339Z,102534.25
2023-01-25T12:59:39.302Z,102544.06
2023-01-25T13:02:16.331Z,102496.59
2023-01-25T13:04:52.122Z,102527.78
2023-01-25T13:07:22.095Z,102455.16
2023-01-25T13:09:54.610Z,102499.44
2023-01-25T13:12:24.645Z,102496.88
2023-01-25T13:14:54.195Z,102503.47
2023-01-25T13:17:26.494Z,102498.56
2023-01-25T13:19:54.567Z,102501.28
2023-01-25T13:22:58.817Z,102496.88
2023-01-25T13:25:27.456Z,102486.16
2023-01-25T13:28:23.731Z,102486.34
2023-01-25T13:30:55.828Z,102431.41
2023-01-25T13:33:33.980Z,102479.72
2023-01-25T13:36:41.238Z,102484.28
2023-01-25T13:39:47.236Z,102456.47
2023-01-25T13:42:22.784Z,102439.53
2023-01-25T13:44:51.956Z,102471.56
2023-01-25T13:47:22.508Z,102468.00
2023-01-25T13:49:53.658Z,102456.47
2023-01-25T13:52:22.454Z,102462.56
2023-01-25T13:54:51.709Z,102466.97
2023-01-25T13:57:22.079Z,102468.00
2023-01-25T13:59:52.438Z,102461.53
2023-01-25T14:02:24.772Z,102447.47
2023-01-25T14:04:53.079Z,102463.41
2023-01-25T14:07:32.772Z,102415.25
2023-01-25T14:10:02.458Z,102409.47
2023-01-25T14:12:36.706Z,102436.09
2023-01-25T14:15:22.809Z,102445.22
2023-01-25T14:18:14.738Z,102453.22
2023-01-25T14:20:42.637Z,102447.78
2023-01-25T14:23:26.570Z,102438.78
2023-01-25T14:25:55.057Z,102437.09
2023-01-25T14:28:22.979Z,102440.50
2023-01-25T14:30:54.861Z,102439.63
2023-01-25T14:33:26.704Z,102433.19
2023-01-25T14:36:00.100Z,102431.47
2023-01-25T14:38:32.409Z,102436.91
2023-01-25T14:41:03.027Z,102426.38
2023-01-25T14:43:31.226Z,102430.63
2023-01-25T14:45:59.401Z,102431.47
2023-01-25T14:48:49.486Z,102429.63
2023-01-25T14:51:27.373Z,102403.03
2023-01-25T14:53:59.045Z,102432.50
2023-01-25T14:56:41.835Z,102436.91
2023-01-25T14:59:21.593Z,102431.47
2023-01-25T15:01:50.778Z,102420.41
2023-01-25T15:04:20.057Z,102423.97
2023-01-25T15:06:49.125Z,102401.63
2023-01-25T15:09:38.534Z,102415.81
2023-01-25T15:12:23.025Z,102401.59
2023-01-25T15:14:51.603Z,102410.59
2023-01-25T15:17:39.984Z,102399.72
2023-01-25T15:20:30.919Z,102402.25
2023-01-25T15:23:00.409Z,102395.31
2023-01-25T15:25:28.666Z,102395.31
2023-01-25T15:27:56.532Z,102400.75
2023-01-25T15:30:24.496Z,102385.28
2023-01-25T15:32:52.432Z,102386.13
2023-01-25T15:35:21.196Z,102379.66
2023-01-25T15:37:50.576Z,102380.50
2023-01-25T15:40:18.617Z,102373.19
2023-01-25T15:42:46.498Z,102373.19
2023-01-25T15:45:14.739Z,102372.34
2023-01-25T15:47:42.693Z,102366.75
2023-01-25T15:50:17.832Z,102264.50
2023-01-25T15:52:45.746Z,102360.84
2023-01-25T15:55:17.493Z,102351.63
2023-01-25T15:57:46.880Z,102339.63
2023-01-25T16:00:18.891Z,102341.84
2023-01-25T16:02:47.052Z,102348.91
2023-01-25T16:05:14.928Z,102307.75
2023-01-25T16:07:43.499Z,102253.94
2023-01-25T16:10:20.020Z,102310.84
2023-01-25T16:12:48.237Z,102344.56
2023-01-25T16:15:16.485Z,102359.13
2023-01-25T16:17:44.553Z,102353.88
2023-01-25T16:20:17.601Z,102317.47
2023-01-25T16:22:45.562Z,102341.81
2023-01-25T16:25:13.445Z,102339.94
2023-01-25T16:27:42.767Z,102339.81
2023-01-25T16:30:18.645Z,102344.69
2023-01-25T16:32:46.776Z,102336.53
2023-01-25T16:35:16.043Z,102336.53
2023-01-25T16:37:44.050Z,102338.41
2023-01-25T16:40:20.693Z,102339.94
2023-01-25T16:42:50.144Z,102316.53
2023-01-25T16:45:19.390Z,102338.72
2023-01-25T16:47:47.713Z,102331.59
2023-01-25T16:50:15.713Z,102322.47
2023-01-25T16:52:44.957Z,102327.91
2023-01-25T16:55:13.584Z,102338.03
2023-01-25T16:57:41.759Z,102324.34
2023-01-25T17:00:14.924Z,102340.97
2023-01-25T17:02:56.996Z,102297.44
2023-01-25T17:05:29.014Z,102323.81
2023-01-25T17:07:57.076Z,102330.94
2023-01-25T17:10:24.983Z,102329.72
2023-01-25T17:12:54.122Z,102327.16
2023-01-25T17:15:23.914Z,102320.06
2023-01-25T17:17:51.888Z,102291.84
2023-01-25T17:20:19.972Z,102330.75
2023-01-25T17:22:51.037Z,102311.78
2023-01-25T17:25:19.330Z,102324.28
2023-01-25T17:27:47.472Z,102319.69
2023-01-25T17:30:15.801Z,102304.41
2023-01-25T17:32:45.084Z,102304.41
2023-01-25T17:35:13.263Z,102298.97
2023-01-25T17:37:41.225Z,102313.59
2023-01-25T17:40:11.296Z,102304.63
2023-01-25T17:42:39.492Z,102312.75
2023-01-25T17:45:11.138Z,102313.41
2023-01-25T17:47:39.516Z,102309.84
2023-01-25T17:50:10.670Z,102306.09
2023-01-25T17:52:38.756Z,102294.56
2023-01-25T17:55:07.875Z,102288.81
2023-01-25T17:57:37.212Z,102311.53
2023-01-25T18:00:05.914Z,102312.56
2023-01-25T18:02:36.520Z,102314.63
2023-01-25T18:05:04.948Z,102313.78
2023-01-25T18:07:34.479Z,102312.09
2023-01-25T18:10:02.368Z,102312.09
2023-01-25T18:12:30.259Z,102314.81
2023-01-25T18:14:58.479Z,102307.38
2023-01-25T18:17:26.499Z,102303.81
2023-01-25T18:19:54.391Z,102314.81
2023-01-25T18:22:23.392Z,102313.94
2023-01-25T18:24:52.944Z,102301.22
2023-01-25T18:27:21.768Z,102283.94
2023-01-25T18:29:54.131Z,102268.84
2023-01-25T18:32:22.164Z,102286.78
2023-01-25T18:34:50.325Z,102288.47
2023-01-25T18:37:21.839Z,102287.63
2023-01-25T18:39:50.264Z,102286.78
2023-01-25T18:42:19.796Z,102284.06
2023-01-25T18:44:49.181Z,102251.94
2023-01-25T18:47:18.550Z,102277.78
2023-01-25T18:49:50.428Z,102268.97
2023-01-25T18:52:18.673Z,102266.91
2023-01-25T18:54:47.030Z,102260.63
2023-01-25T18:57:15.078Z,102264.19
2023-01-25T18:59:44.457Z,102229.19
2023-01-25T19:02:12.896Z,102255.19
2023-01-25T19:04:40.840Z,102247.88
2023-01-25T19:07:09.027Z,102252.47
2023-01-25T19:09:37.179Z,102235.16
2023-01-25T19:12:05.592Z,102225.72
2023-01-25T19:14:33.823Z,102246.88
2023-01-25T19:17:03.779Z,102243.31
2023-01-25T19:19:33.709Z,102170.03
2023-01-25T19:22:02.133Z,102226.16
2023-01-25T19:24:30.080Z,102213.59
2023-01-25T19:26:58.326Z,102090.63
2023-01-25T19:29:26.330Z,102210.03
2023-01-25T19:31:54.375Z,102204.41
2023-01-25T19:34:23.951Z,102201.69
2023-01-25T19:36:53.989Z,102189.97
2023-01-25T19:39:22.507Z,102123.69
2023-01-25T19:41:52.432Z,102178.25
2023-01-25T19:44:20.668Z,102170.13
2023-01-25T19:46:48.685Z,102177.41
2023-01-25T19:49:16.819Z,102169.28
2023-01-25T19:51:52.772Z,102159.25
2023-01-25T19:54:21.697Z,102148.38
2023-01-25T19:56:49.957Z,102147.53
2023-01-25T19:59:18.692Z,102142.09
2023-01-25T20:01:46.820Z,102139.38
2023-01-25T20:04:15.507Z,102107.81
2023-01-25T20:06:45.849Z,102134.78
2023-01-25T20:09:14.264Z,102142.09
2023-01-25T20:11:42.176Z,102144.81
2023-01-25T20:14:11.449Z,102150.91
2023-01-25T20:16:39.314Z,102150.06
2023-01-25T20:19:07.254Z,102148.19
2023-01-25T20:21:38.159Z,102149.91
2023-01-25T20:24:09.911Z,102129.63
2023-01-25T20:26:39.795Z,102149.22
2023-01-25T20:29:07.776Z,102133.94
2023-01-25T20:31:36.512Z,102130.22
2023-01-25T20:34:05.901Z,101973.81
2023-01-25T20:36:34.878Z,102097.28
2023-01-25T20:39:02.860Z,102118.69
2023-01-25T20:41:32.197Z,102099.28
2023-01-25T20:44:01.982Z,101978.69
2023-01-25T20:46:33.905Z,102125.78
2023-01-25T20:49:02.296Z,102021.06
2023-01-25T20:51:30.224Z,101995.75
2023-01-25T20:53:58.257Z,102119.53
2023-01-25T20:56:26.542Z,102122.25
2023-01-25T20:58:55.857Z,102119.53
2023-01-25T21:01:24.656Z,102113.25
2023-01-25T21:03:54.359Z,102113.06
2023-01-25T21:06:22.594Z,102110.72
2023-01-25T21:08:50.551Z,102123.06
2023-01-25T21:11:18.533Z,102093.66
2023-01-25T21:13:46.463Z,102110.53
2023-01-25T21:16:17.934Z,102106.78
2023-01-25T21:18:48.293Z,102094.03
2023-01-25T21:21:17.688Z,102095.91
2023-01-25T21:23:47.498Z,102090.47
2023-01-25T21:26:16.429Z,102076.06
2023-01-25T21:28:44.418Z,102079.59
2023-01-25T21:31:13.211Z,102078.78
2023-01-25T21:33:42.735Z,102085.03
2023-01-25T21:36:11.723Z,102079.59
2023-01-25T21:38:39.968Z,102076.88
2023-01-25T21:41:08.874Z,102074.16
2023-01-25T21:43:51.088Z,102077.94
2023-01-25T21:46:25.556Z,102062.63
2023-01-25T21:49:12.754Z,102088.81
2023-01-25T21:51:46.963Z,102090.69
2023-01-25T21:54:15.939Z,102091.53
2023-01-25T21:56:44.096Z,102095.09
2023-01-25T21:59:12.030Z,102095.09
2023-01-25T22:01:39.964Z,102062.81
2023-01-25T22:04:09.213Z,102089.00
2023-01-25T22:06:37.509Z,102099.69
2023-01-25T22:09:05.495Z,102095.28
2023-01-25T22:11:33.409Z,102090.00
2023-01-25T22:14:01.811Z,102092.56
2023-01-25T22:16:30.429Z,102098.63
2023-01-25T22:18:59.905Z,102099.47
2023-01-25T22:21:31.093Z,102011.94
2023-01-25T22:24:00.282Z,102091.53
2023-01-25T22:26:32.055Z,102062.16
2023-01-25T22:29:00.374Z,102096.13
2023-01-25T22:31:29.967Z,101984.66
2023-01-25T22:33:59.689Z,102096.13
2023-01-25T22:36:30.264Z,102065.53
2023-01-25T22:39:00.175Z,102095.91
2023-01-25T22:41:29.045Z,102053.88
2023-01-25T22:43:57.855Z,102086.94
2023-01-25T22:46:26.973Z,102061.25
2023-01-25T22:48:54.926Z,102083.38
2023-01-25T22:51:25.444Z,102084.22
2023-01-25T22:53:55.091Z,102096.97
2023-01-25T22:56:23.667Z,102070.25
2023-01-25T22:58:51.603Z,102059.94
2023-01-25T23:01:20.461Z,102082.53
2023-01-25T23:03:48.660Z,102087.75
2023-01-25T23:06:17.616Z,102078.47
2023-01-25T23:08:45.566Z,102081.50
2023-01-25T23:11:16.069Z,102082.53
2023-01-25T23:14:04.264Z,102075.22
2023-01-25T23:16:32.246Z,102074.56
2023-01-25T23:18:59.094Z,102071.00
2023-01-25T23:21:28.346Z,102058.25
2023-01-25T23:23:56.242Z,102062.66
2023-01-25T23:26:25.818Z,102059.09
2023-01-25T23:28:54.656Z,102056.56
2023-01-25T23:31:24.257Z,102058.25
2023-01-25T23:33:53.030Z,102064.53
2023-01-25T23:36:22.105Z,102055.53
2023-01-25T23:38:50.041Z,102050.09
2023-01-25T23:41:20.575Z,102040.94
2023-01-25T23:43:50.178Z,102046.53
2023-01-25T23:46:18.465Z,102052.81
2023-01-25T23:48:46.845Z,102042.81
2023-01-25T23:51:15.577Z,101974.22
2023-01-25T23:53:43.515Z,102031.25
2023-01-25T23:56:13.392Z,102025.81
2023-01-25T23:58:41.396Z,102023.97
